Time;durP1;ratioP1;P1;durP2;ratioP2;P2;SDS_P1;SDS_P2;PMS_P1;PMS_P2;Temp;Humidity;BMP_temperature;BMP_pressure;BME280_temperature;BME280_humidity;BME280_pressure;Samples;Min_cycle;Max_cycle;Signal;HPM_P1;HPM_P2
2023/03/31 00:04:44;;;;;;;13.30;6.50;;;;;;;9.08;100.00;99496.30;214577;1288;138899;-86
2023/03/31 00:09:45;;;;;;;12.80;6.70;;;;;;;9.09;100.00;99491.44;214063;1285;139532;-86
2023/03/31 00:14:45;;;;;;;14.10;7.00;;;;;;;9.07;100.00;99491.84;215455;1286;97954;-87
2023/03/31 00:19:48;;;;;;;14.20;7.50;;;;;;;9.05;100.00;99487.02;215039;1286;138956;-85
2023/03/31 00:24:49;;;;;;;15.50;7.00;;;;;;;9.03;100.00;99482.88;215639;1286;139466;-86
2023/03/31 00:29:51;;;;;;;15.80;7.20;;;;;;;9.00;100.00;99483.03;215203;1286;140047;-86
2023/03/31 00:34:52;;;;;;;14.60;7.30;;;;;;;8.96;100.00;99475.57;215595;1285;139551;-86
2023/03/31 00:39:52;;;;;;;11.60;6.20;;;;;;;8.91;100.00;99482.92;215090;1285;139336;-86
2023/03/31 00:45:15;;;;;;;17.60;7.50;;;;;;;8.85;100.00;99483.23;215568;1289;97885;-86
2023/03/31 00:50:20;;;;;;;12.80;6.50;;;;;;;8.80;100.00;99481.49;215058;1285;139090;-84
2023/03/31 00:55:25;;;;;;;14.80;7.40;;;;;;;8.73;100.00;99482.02;215549;1285;138820;-85
2023/03/31 01:00:25;;;;;;;13.40;7.90;;;;;;;8.68;100.00;99483.65;215235;1285;139593;-86
2023/03/31 01:05:49;;;;;;;18.60;8.50;;;;;;;8.66;100.00;99476.19;215634;1285;138858;-86
2023/03/31 01:10:53;;;;;;;15.10;8.10;;;;;;;8.63;100.00;99473.61;215108;1285;139417;-86
2023/03/31 01:15:54;;;;;;;15.00;7.90;;;;;;;8.60;100.00;99464.11;215919;1285;138967;-85
2023/03/31 01:21:32;;;;;;;14.10;7.30;;;;;;;8.57;100.00;99464.65;215287;1285;138946;-86
2023/03/31 01:27:04;;;;;;;12.80;6.70;;;;;;;8.53;100.00;99444.97;215629;1285;106522;-86
2023/03/31 01:32:04;;;;;;;13.70;6.40;;;;;;;8.50;100.00;99441.75;215258;1285;139562;-87
2023/03/31 01:37:30;;;;;;;12.90;6.10;;;;;;;8.48;100.00;99446.13;215776;1285;140073;-86
2023/03/31 01:42:49;;;;;;;12.70;6.30;;;;;;;8.47;100.00;99442.98;215048;1285;139007;-86
2023/03/31 01:47:58;;;;;;;16.50;6.40;;;;;;;8.48;100.00;99439.63;215487;1288;138794;-86
2023/03/31 01:53:01;;;;;;;14.50;5.40;;;;;;;8.52;100.00;99435.80;214963;1285;138908;-86
2023/03/31 01:58:06;;;;;;;15.20;6.60;;;;;;;8.55;100.00;99433.45;215695;1288;138815;-86
2023/03/31 02:03:18;;;;;;;17.40;7.20;;;;;;;8.59;100.00;99426.89;215435;1285;139275;-87
2023/03/31 02:08:27;;;;;;;15.20;6.60;;;;;;;8.63;100.00;99428.86;215508;1285;139172;-87
2023/03/31 02:13:29;;;;;;;14.20;7.20;;;;;;;8.65;100.00;99426.58;214859;1286;138681;-86
2023/03/31 02:18:32;;;;;;;13.90;6.90;;;;;;;8.66;100.00;99422.75;215397;1285;138854;-85
2023/03/31 02:23:36;;;;;;;12.20;6.80;;;;;;;8.67;100.00;99420.72;214827;1285;139316;-86
2023/03/31 02:28:37;;;;;;;13.00;6.30;;;;;;;8.68;100.00;99417.89;215578;1285;138851;-87
2023/03/31 02:33:38;;;;;;;18.30;7.50;;;;;;;8.66;100.00;99402.62;215028;1288;138887;-85
2023/03/31 02:38:45;;;;;;;14.00;6.90;;;;;;;8.65;100.00;99396.40;215618;1289;97922;-86
2023/03/31 02:43:45;;;;;;;12.50;6.20;;;;;;;8.64;100.00;99397.91;215001;1285;138792;-86
2023/03/31 02:48:50;;;;;;;14.80;6.70;;;;;;;8.62;100.00;99395.70;215069;1285;138859;-86
2023/03/31 02:54:18;;;;;;;17.10;7.90;;;;;;;8.60;100.00;99391.48;215467;1285;139161;-87
2023/03/31 02:59:48;;;;;;;12.50;6.70;;;;;;;8.58;100.00;99384.41;214914;1286;139645;-86
2023/03/31 03:05:03;;;;;;;15.40;6.50;;;;;;;8.57;100.00;99379.56;215348;1285;138903;-87
2023/03/31 03:10:28;;;;;;;12.20;6.80;;;;;;;8.56;100.00;99373.76;215003;1286;138786;-88
2023/03/31 03:15:38;;;;;;;14.00;6.10;;;;;;;8.54;100.00;99369.67;215602;1285;113147;-86
2023/03/31 03:20:41;;;;;;;13.90;6.10;;;;;;;8.54;100.00;99366.55;215078;1285;138644;-86
2023/03/31 03:25:43;;;;;;;14.10;6.90;;;;;;;8.53;100.00;99359.95;215589;1287;138496;-86
2023/03/31 03:30:43;;;;;;;13.00;6.50;;;;;;;8.52;100.00;99360.20;214910;1286;138913;-87
2023/03/31 03:35:44;;;;;;;11.10;5.80;;;;;;;8.52;100.00;99359.80;215700;1285;138777;-87
2023/03/31 03:40:45;;;;;;;11.70;6.00;;;;;;;8.53;100.00;99357.30;215176;1285;139116;-85
2023/03/31 03:45:49;;;;;;;15.50;6.20;;;;;;;8.51;100.00;99353.30;215629;1285;139098;-87
2023/03/31 03:50:51;;;;;;;13.30;6.00;;;;;;;8.50;100.00;99353.52;215171;1285;139524;-86
2023/03/31 03:55:52;;;;;;;12.90;5.90;;;;;;;8.49;100.00;99347.57;215582;1285;139282;-86
2023/03/31 04:00:52;;;;;;;15.60;8.70;;;;;;;8.48;100.00;99346.00;215149;1286;139108;-86
2023/03/31 04:05:52;;;;;;;15.40;9.00;;;;;;;8.47;100.00;99344.98;215712;1285;139431;-87
2023/03/31 04:10:53;;;;;;;15.40;8.20;;;;;;;8.48;100.00;99341.54;214985;1285;143330;-87
2023/03/31 04:15:53;;;;;;;15.60;7.50;;;;;;;8.48;100.00;99336.68;215624;1285;139029;-86
2023/03/31 04:21:02;;;;;;;12.50;6.20;;;;;;;8.47;100.00;99328.14;215316;1288;138830;-86
2023/03/31 04:26:07;;;;;;;14.90;5.00;;;;;;;8.47;100.00;99322.74;215597;1285;140161;-85
2023/03/31 04:31:09;;;;;;;12.80;5.30;;;;;;;8.48;100.00;99315.69;215218;1285;138855;-86
2023/03/31 04:36:19;;;;;;;11.60;5.50;;;;;;;8.50;100.00;99311.70;215589;1285;138635;-85
2023/03/31 04:41:21;;;;;;;11.40;5.40;;;;;;;8.52;100.00;99309.89;215204;1285;139043;-86
2023/03/31 04:46:21;;;;;;;16.90;7.30;;;;;;;8.53;100.00;99301.21;215622;1286;138659;-85
2023/03/31 04:51:21;;;;;;;18.40;11.00;;;;;;;8.55;100.00;99296.03;215376;1286;138835;-86
2023/03/31 04:56:22;;;;;;;16.00;10.10;;;;;;;8.58;100.00;99291.64;216204;1285;138795;-85
2023/03/31 05:01:22;;;;;;;14.50;7.50;;;;;;;8.60;100.00;99288.84;215764;1286;139328;-85
2023/03/31 05:06:22;;;;;;;12.10;5.30;;;;;;;8.63;100.00;99283.83;215787;1285;139372;-86
2023/03/31 05:11:23;;;;;;;19.50;13.70;;;;;;;8.67;100.00;99281.00;215101;1285;139496;-85
2023/03/31 05:16:23;;;;;;;10.40;4.30;;;;;;;8.70;100.00;99269.63;215648;1285;139695;-84
2023/03/31 05:21:25;;;;;;;14.00;5.20;;;;;;;8.74;100.00;99272.15;215577;1285;139163;-84
2023/03/31 05:26:26;;;;;;;16.50;9.30;;;;;;;8.77;100.00;99272.45;215827;1285;138544;-83
2023/03/31 05:31:26;;;;;;;12.30;5.60;;;;;;;8.80;100.00;99273.47;215413;1285;139069;-83
2023/03/31 05:36:27;;;;;;;18.70;7.40;;;;;;;8.85;100.00;99269.55;216015;1288;138658;-83
2023/03/31 05:41:27;;;;;;;22.60;13.70;;;;;;;8.90;100.00;99263.42;215665;1286;139404;-83
2023/03/31 05:46:28;;;;;;;20.40;14.40;;;;;;;8.95;100.00;99262.72;215719;1285;139341;-83
2023/03/31 05:51:28;;;;;;;33.40;25.30;;;;;;;9.02;100.00;99259.97;215226;1288;138724;-83
2023/03/31 05:56:29;;;;;;;21.20;15.30;;;;;;;9.10;100.00;99259.09;215744;1285;139686;-83
2023/03/31 06:01:29;;;;;;;16.10;11.30;;;;;;;9.17;100.00;99265.42;215288;1285;139360;-84
2023/03/31 06:06:31;;;;;;;15.20;9.50;;;;;;;9.26;100.00;99265.73;216107;1285;139961;-83
2023/03/31 06:11:32;;;;;;;14.80;8.40;;;;;;;9.36;100.00;99262.79;215442;1285;139585;-85
2023/03/31 06:16:33;;;;;;;16.00;9.80;;;;;;;9.45;100.00;99258.85;215749;1288;139230;-83
2023/03/31 06:21:33;;;;;;;15.10;8.10;;;;;;;9.55;100.00;99255.28;215517;1285;138956;-83
2023/03/31 06:26:34;;;;;;;12.00;6.20;;;;;;;9.66;100.00;99252.02;216273;1285;97949;-84
2023/03/31 06:31:35;;;;;;;14.80;4.80;;;;;;;9.77;100.00;99246.95;215283;1285;138533;-84
2023/03/31 06:36:35;;;;;;;14.40;4.60;;;;;;;9.88;100.00;99238.41;215964;1285;138811;-86
2023/03/31 06:41:37;;;;;;;10.60;4.80;;;;;;;9.97;100.00;99236.09;215318;1288;141126;-84
2023/03/31 06:46:38;;;;;;;11.50;3.90;;;;;;;10.08;100.00;99239.11;215671;1285;139121;-83
2023/03/31 06:51:38;;;;;;;11.00;4.00;;;;;;;10.20;100.00;99240.05;215203;1285;139494;-83
2023/03/31 06:56:38;;;;;;;10.00;3.80;;;;;;;10.32;100.00;99232.42;215755;1288;98627;-83
2023/03/31 07:01:41;;;;;;;8.70;3.50;;;;;;;10.45;100.00;99231.23;215219;1285;138919;-84
2023/03/31 07:06:41;;;;;;;10.90;4.30;;;;;;;10.58;100.00;99234.60;215907;1285;139075;-83
2023/03/31 07:11:41;;;;;;;11.80;3.90;;;;;;;10.71;100.00;99234.64;215076;1286;139032;-84
2023/03/31 07:16:42;;;;;;;10.20;4.00;;;;;;;10.85;100.00;99231.05;215704;1284;138965;-82
2023/03/31 07:21:42;;;;;;;10.00;3.00;;;;;;;10.99;100.00;99234.61;215294;1285;139751;-84
2023/03/31 07:26:43;;;;;;;11.50;3.70;;;;;;;11.12;100.00;99233.31;215683;1285;111208;-84
2023/03/31 07:31:46;;;;;;;8.60;3.40;;;;;;;11.26;100.00;99233.95;214973;1285;141591;-86
2023/03/31 07:36:46;;;;;;;13.90;4.00;;;;;;;11.41;100.00;99230.16;215850;1285;139250;-84
2023/03/31 07:41:47;;;;;;;13.10;4.30;;;;;;;11.49;100.00;99220.70;215948;1285;139523;-85
2023/03/31 07:46:47;;;;;;;8.90;5.20;;;;;;;11.56;100.00;99212.59;217165;1285;140361;-85
2023/03/31 07:51:48;;;;;;;16.30;7.80;;;;;;;11.66;100.00;99210.36;216150;1286;140781;-86
2023/03/31 07:56:48;;;;;;;9.10;3.60;;;;;;;11.79;100.00;99216.88;216503;1285;99257;-85
2023/03/31 08:01:48;;;;;;;10.20;3.70;;;;;;;11.96;100.00;99214.52;215305;1288;140186;-87
2023/03/31 08:06:50;;;;;;;12.70;4.20;;;;;;;12.08;100.00;99203.71;215964;1285;139252;-87
2023/03/31 08:11:50;;;;;;;9.80;3.70;;;;;;;12.16;100.00;99195.17;215085;1286;140023;-86
2023/03/31 08:16:54;;;;;;;15.90;7.20;;;;;;;12.21;100.00;99186.90;215541;1288;139455;-87
2023/03/31 08:21:54;;;;;;;11.80;4.40;;;;;;;12.36;100.00;99187.98;215163;1285;140286;-87
2023/03/31 08:26:55;;;;;;;12.20;5.10;;;;;;;12.52;100.00;99188.66;216017;1285;99352;-87
2023/03/31 08:31:55;;;;;;;11.10;4.30;;;;;;;12.65;100.00;99187.29;215379;1285;139449;-87
2023/03/31 08:36:56;;;;;;;13.00;4.90;;;;;;;12.74;100.00;99179.14;215963;1286;139384;-87
2023/03/31 08:42:01;;;;;;;9.70;3.30;;;;;;;12.80;100.00;99176.84;215362;1285;140338;-87
2023/03/31 08:47:04;;;;;;;9.30;4.00;;;;;;;12.84;100.00;99166.66;216000;1289;139793;-85
2023/03/31 08:52:11;;;;;;;12.40;4.20;;;;;;;12.99;100.00;99156.14;215335;1286;139519;-87
2023/03/31 08:57:18;;;;;;;12.80;4.30;;;;;;;13.14;100.00;99160.19;216104;1286;96630;-85
2023/03/31 09:02:51;;;;;;;16.50;4.30;;;;;;;13.30;99.91;99161.23;215383;1285;139969;-86
2023/03/31 09:08:12;;;;;;;11.60;3.90;;;;;;;13.39;98.87;99156.30;215948;1285;138932;-87
2023/03/31 09:13:50;;;;;;;8.80;4.20;;;;;;;13.43;98.39;99152.98;215343;1286;139117;-86
2023/03/31 09:18:53;;;;;;;10.90;4.30;;;;;;;13.50;98.42;99144.70;215452;1285;139326;-87
2023/03/31 09:23:58;;;;;;;13.30;5.30;;;;;;;13.66;98.10;99140.48;216006;1286;139084;-86
2023/03/31 09:29:02;;;;;;;12.10;4.70;;;;;;;13.88;97.93;99132.95;215471;1286;139647;-87
2023/03/31 09:34:15;;;;;;;12.70;4.70;;;;;;;14.03;96.78;99130.86;215873;1286;139013;-87
2023/03/31 09:39:16;;;;;;;13.70;5.40;;;;;;;14.12;95.45;99123.20;215539;1289;139850;-87
2023/03/31 09:44:38;;;;;;;9.90;3.60;;;;;;;14.29;95.83;99106.86;216015;1285;139780;-87
2023/03/31 09:49:43;;;;;;;12.20;4.30;;;;;;;14.60;95.26;99103.94;215403;1285;139010;-85
2023/03/31 09:54:50;;;;;;;11.40;4.20;;;;;;;14.99;94.45;99091.52;215965;1285;139936;-86
2023/03/31 09:59:50;;;;;;;;;;;;;;;15.31;92.84;99091.26;215419;1289;139424;-85
2023/03/31 10:04:51;;;;;;;12.40;4.90;;;;;;;15.56;91.32;99082.52;215852;1286;125108;-86
2023/03/31 10:09:56;;;;;;;12.10;5.10;;;;;;;15.75;90.76;99075.34;215296;1288;139061;-87
2023/03/31 10:15:20;;;;;;;10.70;4.60;;;;;;;15.90;88.93;99067.75;215772;1291;99255;-85
2023/03/31 10:20:35;;;;;;;11.70;5.40;;;;;;;15.94;88.14;99058.58;215463;1286;139501;-86
2023/03/31 10:25:36;;;;;;;9.40;4.20;;;;;;;15.96;87.04;99057.02;215920;1289;138753;-86
2023/03/31 10:30:39;;;;;;;9.50;3.80;;;;;;;16.04;87.52;99047.84;216029;1285;138809;-85
2023/03/31 10:35:40;;;;;;;12.10;4.90;;;;;;;16.11;85.49;99037.17;216434;1285;139377;-85
2023/03/31 10:40:49;;;;;;;14.40;5.90;;;;;;;16.06;86.15;99021.24;216138;1288;139002;-87
2023/03/31 10:45:58;;;;;;;11.40;4.70;;;;;;;16.01;85.49;99021.77;215723;1288;139081;-86
2023/03/31 10:51:12;;;;;;;14.70;5.50;;;;;;;16.04;85.26;99012.26;215258;1286;139377;-86
2023/03/31 10:56:45;;;;;;;15.00;4.40;;;;;;;16.22;85.44;99001.98;216175;1289;139414;-85
2023/03/31 11:02:03;;;;;;;10.50;4.40;;;;;;;16.51;84.49;98988.34;215462;1289;139304;-85
2023/03/31 11:07:55;;;;;;;11.30;3.90;;;;;;;16.62;82.57;98985.95;215579;1289;138661;-86
2023/03/31 11:13:24;;;;;;;16.30;4.30;;;;;;;16.57;81.47;98982.52;214896;1289;138750;-85
2023/03/31 11:18:39;;;;;;;11.10;3.60;;;;;;;16.66;80.19;98979.16;215699;1289;138908;-86
2023/03/31 11:24:03;;;;;;;10.10;3.50;;;;;;;16.75;79.74;98973.73;215115;1289;139325;-87
2023/03/31 11:29:26;;;;;;;8.40;3.00;;;;;;;16.71;77.67;98971.45;214992;1286;139108;-89
2023/03/31 11:35:04;;;;;;;13.30;3.30;;;;;;;16.58;76.56;98965.06;215632;1286;138856;-87
2023/03/31 11:40:27;;;;;;;10.90;4.00;;;;;;;16.55;77.14;98958.28;215235;1285;139086;-87
2023/03/31 11:45:34;;;;;;;11.60;4.40;;;;;;;16.60;77.75;98949.46;215804;1287;98018;-86
2023/03/31 11:50:38;;;;;;;11.30;4.30;;;;;;;16.65;78.28;98945.77;215301;1287;139407;-86
2023/03/31 11:55:40;;;;;;;11.10;4.10;;;;;;;16.63;77.77;98940.31;216248;1286;138826;-86
2023/03/31 12:00:45;;;;;;;10.70;4.70;;;;;;;16.39;77.19;98927.52;215595;1285;138898;-86
2023/03/31 12:05:52;;;;;;;12.50;5.40;;;;;;;16.34;77.80;98916.41;215748;1289;138972;-91
2023/03/31 12:11:08;;;;;;;10.00;4.40;;;;;;;16.34;77.55;98907.31;215083;1286;140077;-91
2023/03/31 12:16:21;;;;;;;11.70;4.60;;;;;;;16.26;77.47;98895.94;215271;1285;139568;-88
2023/03/31 12:21:25;;;;;;;11.90;4.80;;;;;;;16.18;77.78;98889.10;215023;1285;139556;-86
2023/03/31 12:26:39;;;;;;;12.80;6.00;;;;;;;16.11;78.28;98883.98;215516;1288;138509;-86
2023/03/31 12:31:43;;;;;;;10.80;5.00;;;;;;;15.89;77.72;98877.79;214855;1288;139337;-84
2023/03/31 12:36:52;;;;;;;8.70;4.30;;;;;;;15.66;78.43;98872.94;215436;1289;140294;-86
2023/03/31 12:41:55;;;;;;;10.60;4.50;;;;;;;15.44;78.86;98862.84;214926;1289;139145;-86
2023/03/31 12:47:12;;;;;;;13.10;4.90;;;;;;;15.22;79.74;98859.98;215398;1285;138857;-91
2023/03/31 12:52:46;;;;;;;11.50;4.20;;;;;;;15.05;79.34;98858.31;214833;1288;142118;-88
2023/03/31 12:57:47;;;;;;;12.20;4.10;;;;;;;14.90;79.52;98852.30;215751;1286;139475;-89
2023/03/31 13:02:48;;;;;;;11.10;3.70;;;;;;;14.76;79.73;98845.80;215211;1289;138689;-86
2023/03/31 13:07:49;;;;;;;9.70;3.60;;;;;;;14.58;80.73;98831.64;215707;1286;138772;-86
2023/03/31 13:13:14;;;;;;;13.00;4.20;;;;;;;14.42;81.94;98825.80;215050;1285;139072;-84
2023/03/31 13:18:19;;;;;;;9.10;4.50;;;;;;;14.30;83.80;98818.58;215534;1285;138899;-88
2023/03/31 13:23:24;;;;;;;10.20;4.60;;;;;;;14.24;84.84;98814.88;215108;1285;140059;-87
2023/03/31 13:28:30;;;;;;;9.70;4.50;;;;;;;14.15;85.99;98807.52;215590;1285;139309;-85
2023/03/31 13:33:56;;;;;;;13.60;5.80;;;;;;;14.05;86.84;98789.06;215331;1285;138589;-85
2023/03/31 13:39:19;;;;;;;12.80;6.00;;;;;;;14.01;88.49;98778.27;215297;1288;138792;-85
2023/03/31 13:44:56;;;;;;;15.10;7.00;;;;;;;14.03;89.18;98767.88;215717;1285;138997;-85
2023/03/31 13:50:27;;;;;;;10.40;5.30;;;;;;;14.05;88.99;98756.85;215060;1285;139884;-85
2023/03/31 13:55:56;;;;;;;8.60;4.40;;;;;;;14.05;88.20;98749.56;215568;1285;138818;-87
2023/03/31 14:01:43;;;;;;;12.70;4.00;;;;;;;14.09;87.87;98741.29;215266;1285;234195;-86
2023/03/31 14:06:51;;;;;;;12.80;3.80;;;;;;;14.14;86.43;98735.06;215664;1286;139072;-86
2023/03/31 14:11:51;;;;;;;10.30;4.40;;;;;;;14.16;86.67;98730.59;215238;1285;139410;-85
2023/03/31 14:17:01;;;;;;;11.40;5.20;;;;;;;14.16;87.15;98719.27;215752;1289;138904;-84
2023/03/31 14:22:33;;;;;;;9.30;5.20;;;;;;;14.22;87.76;98711.45;215711;1285;139448;-86
2023/03/31 14:27:49;;;;;;;19.00;7.50;;;;;;;14.29;88.12;98705.29;216343;1286;105145;-86
2023/03/31 14:33:05;;;;;;;13.40;6.30;;;;;;;14.37;88.23;98700.22;215544;1285;138878;-85
2023/03/31 14:38:13;;;;;;;15.90;6.70;;;;;;;14.43;88.34;98695.70;215701;1285;139073;-85
2023/03/31 14:43:27;;;;;;;14.80;7.90;;;;;;;14.41;88.68;98690.38;215116;1289;139480;-83
2023/03/31 14:48:29;;;;;;;11.70;5.80;;;;;;;14.30;89.92;98690.32;215906;1285;138949;-86
2023/03/31 14:53:29;;;;;;;15.60;7.10;;;;;;;13.99;91.42;98684.92;215273;1289;139327;-85
2023/03/31 14:58:36;;;;;;;10.30;6.00;;;;;;;13.79;93.44;98676.21;215886;1286;138967;-85
2023/03/31 15:03:40;;;;;;;;;;;;;;;13.69;95.09;98669.89;215932;1285;138503;-84
2023/03/31 15:08:41;;;;;;;18.10;9.20;;;;;;;13.59;96.48;98663.08;216803;1285;126165;-85
2023/03/31 15:13:48;;;;;;;19.00;11.30;;;;;;;13.53;97.65;98660.32;216056;1285;138911;-85
2023/03/31 15:18:52;;;;;;;17.20;9.50;;;;;;;13.46;98.76;98664.00;215309;1288;140238;-89
2023/03/31 15:23:57;;;;;;;16.00;8.30;;;;;;;13.36;99.27;98659.83;215582;1286;139445;-86
2023/03/31 15:29:05;;;;;;;10.80;5.50;;;;;;;13.21;99.48;98661.55;215711;1285;140116;-87
2023/03/31 15:34:18;;;;;;;13.00;6.70;;;;;;;13.02;99.50;98660.52;216142;1285;139206;-88
2023/03/31 15:39:18;;;;;;;14.10;7.90;;;;;;;12.86;100.00;98663.34;216930;1286;138928;-87
2023/03/31 15:44:31;;;;;;;15.10;8.20;;;;;;;12.72;99.97;98661.13;216161;1285;139029;-85
2023/03/31 15:49:31;;;;;;;18.80;9.90;;;;;;;12.59;100.00;98656.20;215852;1287;139388;-86
2023/03/31 15:54:31;;;;;;;14.80;8.50;;;;;;;12.47;100.00;98651.91;216175;1285;139795;-85
2023/03/31 15:59:50;;;;;;;14.10;8.80;;;;;;;12.38;100.00;98650.55;215434;1285;139250;-86
2023/03/31 16:04:55;;;;;;;23.90;7.40;;;;;;;12.24;100.00;98646.09;216044;1285;140123;-86
2023/03/31 16:10:13;;;;;;;13.30;6.70;;;;;;;12.17;100.00;98642.17;215126;1285;165521;-84
2023/03/31 16:15:18;;;;;;;12.70;6.70;;;;;;;12.10;100.00;98637.21;215842;1285;97952;-87
2023/03/31 16:20:27;;;;;;;15.30;7.10;;;;;;;12.00;100.00;98637.05;215237;1285;139872;-86
2023/03/31 16:25:30;;;;;;;11.30;6.10;;;;;;;11.90;100.00;98633.67;215748;1288;138868;-85
2023/03/31 16:30:41;;;;;;;13.60;6.60;;;;;;;11.82;100.00;98631.88;215159;1285;139104;-86
2023/03/31 16:35:51;;;;;;;15.00;7.70;;;;;;;11.79;100.00;98626.36;215945;1285;139040;-86
2023/03/31 16:40:55;;;;;;;18.20;9.20;;;;;;;11.75;100.00;98625.11;215108;1288;139432;-88
2023/03/31 16:45:58;;;;;;;15.00;8.00;;;;;;;11.67;100.00;98621.82;216057;1285;139057;-87
2023/03/31 16:50:59;;;;;;;12.00;6.80;;;;;;;11.54;100.00;98620.98;215337;1288;138939;-87
2023/03/31 16:55:59;;;;;;;18.00;10.30;;;;;;;11.41;100.00;98621.33;215370;1286;140472;-86
2023/03/31 17:01:00;;;;;;;14.50;6.50;;;;;;;11.31;100.00;98617.70;215121;1285;139274;-85
2023/03/31 17:06:05;;;;;;;13.30;7.40;;;;;;;11.23;100.00;98614.88;215608;1285;139992;-86
2023/03/31 17:11:10;;;;;;;16.70;7.30;;;;;;;11.13;100.00;98603.21;215115;1285;139410;-85
2023/03/31 17:16:11;;;;;;;12.50;6.70;;;;;;;11.10;100.00;98608.23;215802;1285;140893;-86
2023/03/31 17:21:14;;;;;;;14.00;6.50;;;;;;;11.02;100.00;98607.43;215266;1285;139245;-85
2023/03/31 17:26:15;;;;;;;13.70;7.00;;;;;;;10.95;100.00;98608.59;215778;1285;139087;-85
2023/03/31 17:31:18;;;;;;;13.10;7.20;;;;;;;10.93;100.00;98602.75;215191;1285;139095;-85
2023/03/31 17:36:21;;;;;;;15.50;7.50;;;;;;;10.93;100.00;98599.66;215758;1285;139680;-85
2023/03/31 17:41:21;;;;;;;15.40;8.20;;;;;;;10.92;100.00;98599.95;215276;1288;139201;-84
2023/03/31 17:46:22;;;;;;;13.90;7.30;;;;;;;10.88;100.00;98596.80;215758;1285;139226;-84
2023/03/31 17:51:23;;;;;;;15.40;7.30;;;;;;;10.84;100.00;98597.64;215131;1285;139958;-84
2023/03/31 17:56:23;;;;;;;13.00;7.70;;;;;;;10.81;100.00;98601.48;215586;1285;139198;-84
2023/03/31 18:01:24;;;;;;;17.50;10.90;;;;;;;10.79;100.00;98597.35;215052;1285;139208;-84
2023/03/31 18:06:28;;;;;;;19.50;12.40;;;;;;;10.77;100.00;98595.52;215605;1290;139224;-87
2023/03/31 18:11:29;;;;;;;22.30;11.20;;;;;;;10.76;100.00;98598.36;215036;1285;140149;-84
2023/03/31 18:16:30;;;;;;;20.60;12.40;;;;;;;10.74;100.00;98593.52;215703;1285;139740;-84
2023/03/31 18:21:30;;;;;;;20.10;12.10;;;;;;;10.71;100.00;98600.66;215191;1286;139748;-83
2023/03/31 18:26:31;;;;;;;22.00;12.90;;;;;;;10.66;100.00;98602.88;215666;1285;139375;-84
2023/03/31 18:31:31;;;;;;;24.20;13.40;;;;;;;10.62;100.00;98600.04;215164;1285;139548;-84
2023/03/31 18:36:32;;;;;;;23.60;13.00;;;;;;;10.60;100.00;98600.23;215615;1285;139514;-84
2023/03/31 18:41:33;;;;;;;23.20;13.40;;;;;;;10.59;100.00;98603.39;215011;1285;139258;-84
2023/03/31 18:46:33;;;;;;;22.60;13.10;;;;;;;10.57;100.00;98605.63;215553;1288;139564;-84
2023/03/31 18:51:34;;;;;;;21.70;12.40;;;;;;;10.53;100.00;98610.25;215480;1284;139155;-84
2023/03/31 18:56:34;;;;;;;21.70;12.80;;;;;;;10.51;100.00;98607.30;215735;1285;140006;-84
2023/03/31 19:01:38;;;;;;;19.20;10.90;;;;;;;10.46;100.00;98611.39;215350;1288;139846;-84
2023/03/31 19:06:39;;;;;;;16.90;9.80;;;;;;;10.41;100.00;98611.25;216200;1285;139245;-83
2023/03/31 19:11:40;;;;;;;16.60;9.10;;;;;;;10.36;100.00;98609.06;215289;1285;139447;-84
2023/03/31 19:16:42;;;;;;;15.70;8.70;;;;;;;10.35;100.00;98611.05;215711;1286;139176;-84
2023/03/31 19:21:43;;;;;;;15.90;8.90;;;;;;;10.31;100.00;98613.31;215517;1285;138780;-84
2023/03/31 19:26:44;;;;;;;16.90;8.90;;;;;;;10.26;100.00;98611.66;216266;1285;97910;-84
2023/03/31 19:31:46;;;;;;;14.40;7.40;;;;;;;10.22;100.00;98604.52;215724;1285;141036;-85
2023/03/31 19:36:46;;;;;;;15.00;8.90;;;;;;;10.21;100.00;98601.39;216020;1285;139656;-85
2023/03/31 19:41:47;;;;;;;14.80;8.50;;;;;;;10.19;100.00;98600.02;215670;1285;139628;-85
2023/03/31 19:46:47;;;;;;;17.40;9.90;;;;;;;10.18;100.00;98597.91;216237;1288;139621;-85
2023/03/31 19:51:48;;;;;;;19.40;12.00;;;;;;;10.15;100.00;98598.27;215832;1285;140976;-85
2023/03/31 19:56:48;;;;;;;20.20;11.90;;;;;;;10.12;100.00;98599.25;216120;1285;98033;-86
2023/03/31 20:01:49;;;;;;;21.40;12.40;;;;;;;10.08;100.00;98591.79;214697;1285;139568;-85
2023/03/31 20:06:49;;;;;;;20.90;12.80;;;;;;;10.05;100.00;98588.30;214796;1288;139397;-85
2023/03/31 20:11:52;;;;;;;20.60;12.20;;;;;;;10.01;100.00;98584.10;214202;1285;139829;-84
2023/03/31 20:16:53;;;;;;;19.40;11.20;;;;;;;9.96;100.00;98582.77;214665;1285;139609;-85
2023/03/31 20:21:54;;;;;;;21.10;11.90;;;;;;;9.92;100.00;98587.00;214230;1288;139334;-85
2023/03/31 20:26:55;;;;;;;19.30;11.70;;;;;;;9.89;100.00;98590.17;214882;1285;98834;-85
2023/03/31 20:31:55;;;;;;;18.70;11.60;;;;;;;9.86;100.00;98593.52;214228;1285;138825;-84
2023/03/31 20:36:56;;;;;;;24.40;13.20;;;;;;;9.84;100.00;98597.95;214846;1288;139034;-85
2023/03/31 20:41:56;;;;;;;21.50;12.00;;;;;;;9.82;100.00;98598.92;214109;1285;139732;-84
2023/03/31 20:46:59;;;;;;;19.70;11.70;;;;;;;9.79;100.00;98602.35;214616;1285;139159;-85
2023/03/31 20:51:59;;;;;;;19.50;11.80;;;;;;;9.78;100.00;98600.95;214157;1285;138827;-85
2023/03/31 20:57:00;;;;;;;20.20;10.10;;;;;;;9.75;100.00;98596.36;215050;1285;98460;-86
2023/03/31 21:02:02;;;;;;;19.80;10.70;;;;;;;9.70;100.00;98594.88;214783;1288;139395;-85
2023/03/31 21:07:02;;;;;;;18.20;11.20;;;;;;;9.68;100.00;98594.34;214963;1288;139620;-85
2023/03/31 21:12:03;;;;;;;18.30;11.50;;;;;;;9.68;100.00;98596.46;214414;1285;139227;-86
2023/03/31 21:17:04;;;;;;;23.00;13.10;;;;;;;9.69;100.00;98601.02;214629;1285;139519;-85
2023/03/31 21:22:04;;;;;;;19.50;11.50;;;;;;;9.67;100.00;98601.74;214075;1288;140551;-85
2023/03/31 21:27:05;;;;;;;23.80;12.90;;;;;;;9.66;100.00;98600.88;214534;1285;99266;-85
2023/03/31 21:32:05;;;;;;;22.60;13.00;;;;;;;9.65;100.00;98599.88;214010;1290;138857;-85
2023/03/31 21:37:07;;;;;;;22.50;13.00;;;;;;;9.63;100.00;98602.51;214500;1285;138739;-86
2023/03/31 21:42:08;;;;;;;20.00;11.40;;;;;;;9.63;100.00;98601.17;214270;1286;139034;-86
2023/03/31 21:47:08;;;;;;;18.30;11.10;;;;;;;9.62;100.00;98601.11;215120;1286;138850;-86
2023/03/31 21:52:09;;;;;;;19.30;11.30;;;;;;;9.60;100.00;98601.39;214594;1285;139191;-86
2023/03/31 21:57:10;;;;;;;16.70;10.30;;;;;;;9.60;100.00;98600.99;214993;1289;106992;-86
2023/03/31 22:02:10;;;;;;;19.20;11.60;;;;;;;9.59;100.00;98595.12;213948;1286;138788;-86
2023/03/31 22:07:13;;;;;;;18.20;11.60;;;;;;;9.59;100.00;98598.71;214510;1289;138844;-86
2023/03/31 22:12:13;;;;;;;19.80;12.50;;;;;;;9.60;100.00;98604.51;213979;1286;139077;-86
2023/03/31 22:17:14;;;;;;;21.10;11.40;;;;;;;9.61;100.00;98603.89;214323;1285;138835;-86
2023/03/31 22:22:15;;;;;;;23.40;13.60;;;;;;;9.60;100.00;98605.61;213725;1289;140153;-85
2023/03/31 22:27:16;;;;;;;21.40;12.60;;;;;;;9.57;100.00;98605.97;214429;1286;97936;-85
2023/03/31 22:32:18;;;;;;;18.30;11.40;;;;;;;9.54;100.00;98603.73;213737;1285;138820;-85
2023/03/31 22:37:19;;;;;;;19.30;11.10;;;;;;;9.54;100.00;98607.43;214205;1285;138638;-86
2023/03/31 22:42:19;;;;;;;19.50;11.20;;;;;;;9.53;100.00;98606.41;213871;1285;139199;-86
2023/03/31 22:47:20;;;;;;;18.60;10.30;;;;;;;9.50;100.00;98605.67;214300;1290;138853;-85
2023/03/31 22:52:21;;;;;;;16.20;10.30;;;;;;;9.49;100.00;98603.09;213702;1285;140677;-85
2023/03/31 22:57:21;;;;;;;16.20;10.70;;;;;;;9.48;100.00;98604.77;214608;1285;97995;-85
2023/03/31 23:02:22;;;;;;;18.60;10.40;;;;;;;9.47;100.00;98604.14;213920;1286;139391;-84
2023/03/31 23:07:22;;;;;;;16.60;9.70;;;;;;;9.45;100.00;98604.17;214370;1285;138864;-84